Time;durP1;ratioP1;P1;durP2;ratioP2;P2;SDS_P1;SDS_P2;PMS_P1;PMS_P2;Temp;Humidity;BMP_temperature;BMP_pressure;BME280_temperature;BME280_humidity;BME280_pressure;Samples;Min_cycle;Max_cycle;Signal;HPM_P1;HPM_P2
2024/03/02 00:04:32;;;;;;;6.80;3.20;;;;;;;4.19;62.18;98695.28;10434852;28;20447;-61
2024/03/02 00:09:35;;;;;;;6.97;3.15;;;;;;;4.22;62.19;98710.63;10433765;28;20056;-60
2024/03/02 00:14:37;;;;;;;6.13;2.85;;;;;;;4.23;61.94;98697.59;10434589;28;20040;-60
2024/03/02 00:19:39;;;;;;;8.13;4.00;;;;;;;4.21;61.85;98699.44;10433779;28;20095;-60
2024/03/02 00:24:41;;;;;;;6.45;3.10;;;;;;;4.23;62.22;98702.75;10434157;28;20052;-60
2024/03/02 00:29:44;;;;;;;7.40;3.13;;;;;;;4.23;62.21;98701.94;10432481;28;20045;-59
2024/03/02 00:34:46;;;;;;;7.30;3.97;;;;;;;4.29;62.08;98705.03;10432010;28;20041;-59
2024/03/02 00:39:49;;;;;;;6.93;4.10;;;;;;;4.28;62.38;98720.66;10433463;28;20496;-60
2024/03/02 00:44:51;;;;;;;5.45;3.25;;;;;;;4.47;62.43;98710.97;10431848;28;20048;-60
2024/03/02 00:49:53;;;;;;;7.88;3.25;;;;;;;4.59;62.08;98700.78;10432534;28;20088;-60
2024/03/02 00:54:57;;;;;;;6.90;3.60;;;;;;;4.75;62.21;98703.38;10432792;28;20048;-59
2024/03/02 00:59:59;;;;;;;5.28;3.10;;;;;;;4.90;61.93;98699.09;10431248;28;20049;-59
2024/03/02 01:05:02;;;;;;;6.15;3.42;;;;;;;5.02;61.93;98693.22;10415271;28;20509;-60
2024/03/02 01:10:04;;;;;;;6.50;3.45;;;;;;;5.03;61.89;98681.91;10430657;28;20383;-60
2024/03/02 01:15:07;;;;;;;6.97;3.50;;;;;;;4.71;61.89;98675.97;10432665;28;20562;-60
2024/03/02 01:20:10;;;;;;;8.38;3.58;;;;;;;4.66;61.95;98673.63;10430890;28;20053;-60
2024/03/02 01:25:13;;;;;;;6.50;3.40;;;;;;;4.60;61.77;98666.19;10432488;28;20041;-60
2024/03/02 01:30:15;;;;;;;5.80;3.95;;;;;;;4.74;61.90;98662.84;10431233;28;20055;-60
2024/03/02 01:35:18;;;;;;;9.00;3.63;;;;;;;4.87;61.75;98666.41;10430496;28;20044;-60
2024/03/02 01:40:20;;;;;;;8.40;4.07;;;;;;;4.72;61.66;98669.03;10413489;28;20064;-60
2024/03/02 01:45:22;;;;;;;5.75;3.33;;;;;;;4.44;61.87;98657.63;10432626;28;20125;-61
2024/03/02 01:50:26;;;;;;;6.90;2.97;;;;;;;4.30;62.24;98665.31;10438671;28;20055;-61
2024/03/02 01:55:30;;;;;;;5.50;3.20;;;;;;;4.15;62.56;98653.19;10439928;28;20037;-60
2024/03/02 02:00:32;;;;;;;6.93;3.15;;;;;;;4.04;62.67;98649.50;10439923;28;20045;-60
2024/03/02 02:05:35;;;;;;;6.90;3.63;;;;;;;3.95;63.02;98640.47;10439251;28;20168;-60
2024/03/02 02:10:37;;;;;;;6.10;3.30;;;;;;;3.92;63.02;98640.66;10439413;28;20055;-60
2024/03/02 02:15:39;;;;;;;7.85;3.75;;;;;;;3.96;62.86;98641.31;10438987;28;20126;-59
2024/03/02 02:20:42;;;;;;;6.10;3.22;;;;;;;3.97;63.06;98636.06;10438838;28;20127;-60
2024/03/02 02:25:44;;;;;;;6.45;3.20;;;;;;;4.04;63.07;98637.41;10437734;28;20052;-60
2024/03/02 02:30:46;;;;;;;6.88;3.13;;;;;;;4.12;62.87;98631.81;10438479;28;20572;-60
2024/03/02 02:35:48;;;;;;;6.25;3.28;;;;;;;3.91;63.32;98633.81;10438325;28;20064;-60
2024/03/02 02:40:50;;;;;;;6.20;3.67;;;;;;;3.84;63.17;98625.53;10437842;28;20107;-60
2024/03/02 02:45:52;;;;;;;5.57;3.20;;;;;;;3.79;63.24;98618.91;10436542;28;20063;-60
2024/03/02 02:50:54;;;;;;;7.65;3.38;;;;;;;3.58;63.45;98613.13;10437593;28;20052;-60
2024/03/02 02:55:56;;;;;;;5.70;3.05;;;;;;;3.58;63.60;98605.34;10437047;28;20130;-60
2024/03/02 03:00:58;;;;;;;6.47;3.28;;;;;;;3.51;64.14;98598.88;10469648;28;20053;-60
2024/03/02 03:06:02;;;;;;;5.88;2.88;;;;;;;3.49;63.73;98603.28;10436527;28;20041;-59
2024/03/02 03:11:04;;;;;;;6.82;3.72;;;;;;;3.37;63.92;98603.91;10436981;28;20106;-60
2024/03/02 03:16:06;;;;;;;6.70;3.55;;;;;;;3.25;64.08;98607.13;10436375;28;20049;-60
2024/03/02 03:21:09;;;;;;;5.43;3.33;;;;;;;3.26;63.90;98611.38;10436518;28;20049;-60
2024/03/02 03:26:11;;;;;;;6.15;3.45;;;;;;;3.24;63.94;98604.59;10436190;28;20158;-60
2024/03/02 03:31:12;;;;;;;8.50;4.00;;;;;;;3.22;63.92;98609.00;10435024;28;20649;-60
2024/03/02 03:36:15;;;;;;;7.00;3.17;;;;;;;3.21;64.25;98599.59;10435228;28;20130;-60
2024/03/02 03:41:17;;;;;;;6.78;3.35;;;;;;;3.32;64.07;98587.81;10433671;28;20552;-60
2024/03/02 03:46:19;;;;;;;7.55;3.90;;;;;;;3.36;64.96;98578.13;10435346;28;20136;-60
2024/03/02 03:51:22;;;;;;;8.13;4.07;;;;;;;3.45;64.88;98585.41;10435370;28;20136;-59
2024/03/02 03:56:24;;;;;;;6.90;3.70;;;;;;;2.97;64.70;98593.91;10434947;28;20146;-59
2024/03/02 04:01:26;;;;;;;5.45;3.28;;;;;;;2.96;64.69;98598.28;10433572;28;20040;-59
2024/03/02 04:06:28;;;;;;;6.63;3.70;;;;;;;3.14;64.58;98614.56;10433712;28;20037;-60
2024/03/02 04:11:30;;;;;;;8.90;3.70;;;;;;;3.12;64.21;98606.06;10433840;28;20492;-60
2024/03/02 04:16:33;;;;;;;6.47;3.60;;;;;;;3.00;64.05;98604.94;10432720;28;20040;-59
2024/03/02 04:21:35;;;;;;;6.55;3.70;;;;;;;2.96;64.55;98606.00;10434116;28;20059;-60
2024/03/02 04:26:37;;;;;;;5.85;3.42;;;;;;;3.02;64.25;98610.03;10433862;28;20040;-59
2024/03/02 04:31:39;;;;;;;6.95;3.67;;;;;;;2.99;64.69;98618.75;10433904;28;20144;-60
2024/03/02 04:36:41;;;;;;;5.05;3.22;;;;;;;3.01;64.26;98623.84;10433752;28;20056;-60
2024/03/02 04:41:44;;;;;;;6.88;3.33;;;;;;;2.95;64.63;98616.41;10431857;28;20053;-59
2024/03/02 04:46:46;;;;;;;7.13;3.58;;;;;;;2.96;64.47;98631.84;10433971;28;20497;-59
2024/03/02 04:51:48;;;;;;;7.13;3.83;;;;;;;2.77;64.32;98630.22;10432815;28;20136;-59
2024/03/02 04:56:50;;;;;;;7.97;3.63;;;;;;;2.76;64.63;98637.16;10433201;28;20094;-58
2024/03/02 05:01:52;;;;;;;6.38;3.80;;;;;;;2.85;64.57;98641.00;10414951;28;20098;-60
2024/03/02 05:06:57;;;;;;;7.45;3.22;;;;;;;2.87;64.45;98646.94;10433070;28;20136;-59
2024/03/02 05:12:15;;;;;;;6.72;3.72;;;;;;;2.86;64.53;98653.03;10431866;28;20084;-60
2024/03/02 05:17:17;;;;;;;9.50;4.30;;;;;;;2.79;64.72;98657.63;10430688;28;20049;-59
2024/03/02 05:22:19;;;;;;;7.60;3.58;;;;;;;2.94;64.67;98651.75;10436928;28;20152;-59
2024/03/02 05:27:22;;;;;;;6.80;3.58;;;;;;;3.09;64.38;98657.06;10439669;28;20199;-60
2024/03/02 05:32:24;;;;;;;7.75;3.85;;;;;;;3.13;64.14;98663.75;10440592;28;20565;-59
2024/03/02 05:37:26;;;;;;;8.00;4.18;;;;;;;3.26;64.00;98668.22;10440698;28;20048;-59
2024/03/02 05:42:28;;;;;;;8.45;4.10;;;;;;;3.38;64.12;98664.16;10440268;28;20456;-60
2024/03/02 05:47:30;;;;;;;7.75;3.72;;;;;;;3.49;63.90;98670.47;10439990;28;20056;-60
2024/03/02 05:52:33;;;;;;;15.13;4.63;;;;;;;3.64;63.79;98671.44;10439444;28;20504;-60
2024/03/02 06:02:42;;;;;;;10.30;4.47;;;;;;;3.77;63.47;98667.28;10439692;28;20208;-60
2024/03/02 06:07:45;;;;;;;8.45;4.75;;;;;;;3.77;63.48;98667.28;10437584;28;20060;-60
2024/03/02 06:12:47;;;;;;;9.65;5.03;;;;;;;3.86;63.37;98667.66;10438938;28;20140;-60
2024/03/02 06:17:49;;;;;;;7.13;3.90;;;;;;;3.92;63.51;98674.28;10439098;28;20052;-60
2024/03/02 06:22:51;;;;;;;7.18;3.83;;;;;;;4.08;63.38;98677.72;10437761;28;20037;-60
2024/03/02 06:27:53;;;;;;;10.27;4.50;;;;;;;4.07;63.12;98683.00;10437077;28;20052;-60
2024/03/02 06:32:56;;;;;;;8.18;3.92;;;;;;;4.08;63.08;98689.81;10436475;28;20136;-60
2024/03/02 06:37:58;;;;;;;7.40;4.10;;;;;;;4.00;62.64;98695.41;10436356;28;20047;-60
2024/03/02 06:43:00;;;;;;;7.25;4.60;;;;;;;3.97;62.97;98699.88;10437552;28;20048;-60
2024/03/02 06:48:02;;;;;;;9.43;3.85;;;;;;;4.00;62.76;98695.41;10433621;28;20041;-60
2024/03/02 06:53:04;;;;;;;7.20;3.78;;;;;;;4.08;62.85;98707.94;10437664;28;20137;-60
2024/03/02 06:58:06;;;;;;;7.07;3.35;;;;;;;4.15;62.58;98706.69;10435605;28;20517;-60
2024/03/02 07:03:09;;;;;;;7.65;4.18;;;;;;;4.43;62.63;98705.09;10435902;28;20131;-60
2024/03/02 07:08:11;;;;;;;9.73;4.80;;;;;;;4.51;62.84;98704.72;10435691;28;20076;-60
2024/03/02 07:13:13;;;;;;;8.15;4.07;;;;;;;4.65;62.55;98697.03;10436334;28;20056;-60
2024/03/02 07:18:15;;;;;;;6.50;3.38;;;;;;;4.38;62.74;98717.47;10436337;28;20099;-60
2024/03/02 07:23:17;;;;;;;17.08;4.15;;;;;;;4.56;62.54;98719.06;10436353;28;20505;-60
2024/03/02 07:28:19;;;;;;;6.97;3.95;;;;;;;5.06;62.55;98720.63;10437042;28;20049;-60
2024/03/02 07:33:22;;;;;;;13.05;4.00;;;;;;;5.36;62.37;98711.09;10437247;28;20103;-60
2024/03/02 07:38:25;;;;;;;8.52;4.35;;;;;;;5.78;61.89;98724.13;10437094;28;20056;-60
2024/03/02 07:43:27;;;;;;;13.15;4.43;;;;;;;6.10;61.67;98717.81;10434480;28;20052;-60
2024/03/02 07:48:30;;;;;;;8.68;4.22;;;;;;;6.33;61.38;98722.50;10433734;28;20073;-60
2024/03/02 07:53:32;;;;;;;10.40;5.68;;;;;;;6.71;61.05;98724.47;10434870;28;20049;-60
2024/03/02 07:58:35;;;;;;;9.20;5.35;;;;;;;6.50;60.71;98737.03;10433619;28;20140;-61
2024/03/02 08:03:37;;;;;;;7.60;4.10;;;;;;;6.26;61.25;98735.94;10432766;28;20049;-60
2024/03/02 08:08:39;;;;;;;10.88;4.43;;;;;;;6.52;61.06;98734.34;10433325;28;20346;-60
2024/03/02 08:13:41;;;;;;;8.88;4.75;;;;;;;6.52;61.04;98736.94;10434553;28;20048;-60
2024/03/02 08:18:44;;;;;;;9.23;5.60;;;;;;;6.64;61.00;98750.00;10433998;28;20075;-58
2024/03/02 08:23:46;;;;;;;7.35;4.50;;;;;;;6.63;60.79;98747.50;10430590;28;20282;-59
2024/03/02 08:28:48;;;;;;;7.40;4.20;;;;;;;6.71;60.77;98735.72;10429526;28;20056;-60
2024/03/02 08:33:50;;;;;;;7.40;3.67;;;;;;;6.71;60.72;98746.09;10427889;28;20068;-60
2024/03/02 08:38:53;;;;;;;6.43;3.63;;;;;;;6.94;60.79;98734.22;10427646;28;20520;-60
2024/03/02 08:43:55;;;;;;;8.20;4.22;;;;;;;7.65;60.05;98732.97;10422039;28;20052;-60
2024/03/02 08:48:57;;;;;;;10.30;3.72;;;;;;;8.21;59.50;98723.09;10428071;28;20129;-60
2024/03/02 08:53:59;;;;;;;9.15;3.95;;;;;;;8.31;58.40;98726.72;10427661;28;20091;-56
2024/03/02 08:59:01;;;;;;;6.18;3.72;;;;;;;8.16;58.22;98733.03;10428407;28;20782;-56
2024/03/02 09:04:04;;;;;;;8.82;3.70;;;;;;;8.14;58.95;98742.72;10427698;28;20049;-55
2024/03/02 09:09:07;;;;;;;8.57;3.97;;;;;;;8.59;57.95;98734.28;10427728;28;20056;-56
2024/03/02 09:14:09;;;;;;;8.48;4.20;;;;;;;9.01;57.14;98731.25;10428215;28;20068;-55
2024/03/02 09:19:11;;;;;;;6.97;3.55;;;;;;;9.19;56.81;98729.91;10423035;28;20582;-54
2024/03/02 09:24:13;;;;;;;6.88;3.70;;;;;;;9.41;55.20;98724.75;10421915;28;20519;-56
2024/03/02 09:29:20;;;;;;;8.18;4.30;;;;;;;9.67;56.29;98717.63;10421796;28;20138;-56
2024/03/02 09:34:23;;;;;;;8.88;3.47;;;;;;;9.86;55.75;98711.84;10421835;28;20080;-56
2024/03/02 09:39:25;;;;;;;6.28;3.25;;;;;;;9.67;55.66;98706.38;10422230;28;20053;-57
2024/03/02 09:44:27;;;;;;;8.25;3.65;;;;;;;9.45;55.99;98694.88;10437529;28;20048;-55
2024/03/02 09:49:29;;;;;;;6.13;3.15;;;;;;;9.75;55.55;98698.78;10419838;28;20053;-55
2024/03/02 09:54:33;;;;;;;5.32;2.80;;;;;;;10.07;55.21;98705.00;10419300;28;20037;-55
2024/03/02 09:59:42;;;;;;;7.07;3.28;;;;;;;10.37;54.69;98692.16;10417059;28;20143;-57
2024/03/02 10:04:45;;;;;;;3.78;2.38;;;;;;;10.79;53.44;98680.91;10419070;28;20134;-57
2024/03/02 10:09:48;;;;;;;3.65;1.95;;;;;;;11.06;52.88;98677.88;10428145;28;20072;-56
2024/03/02 10:15:04;;;;;;;2.75;1.70;;;;;;;10.96;51.59;98682.16;10430725;28;20045;-55
2024/03/02 10:20:23;;;;;;;3.55;1.55;;;;;;;11.43;50.10;98662.59;10433437;28;20114;-54
2024/03/02 10:25:30;;;;;;;2.45;1.42;;;;;;;11.82;49.98;98652.22;10432474;28;20150;-54
2024/03/02 10:30:52;;;;;;;4.40;1.30;;;;;;;12.15;50.60;98643.25;10433112;28;20072;-57
2024/03/02 10:35:56;;;;;;;2.47;1.45;;;;;;;12.10;50.05;98650.69;10433124;28;20578;-54
2024/03/02 10:40:59;;;;;;;2.28;1.10;;;;;;;12.04;49.29;98652.06;10432730;28;20045;-55
2024/03/02 10:46:02;;;;;;;1.80;1.20;;;;;;;12.05;49.79;98647.63;10431129;28;20371;-55
2024/03/02 10:51:04;;;;;;;2.30;1.35;;;;;;;12.12;48.00;98643.53;10432433;28;20606;-57
2024/03/02 10:56:09;;;;;;;2.40;1.30;;;;;;;12.24;48.54;98637.22;10433127;28;20134;-57
2024/03/02 11:01:12;;;;;;;2.40;1.27;;;;;;;12.62;48.68;98633.91;10431680;28;20055;-56
2024/03/02 11:06:15;;;;;;;1.77;1.15;;;;;;;12.71;47.66;98633.09;10431914;28;20126;-56
2024/03/02 11:11:27;;;;;;;2.08;1.08;;;;;;;12.93;46.63;98633.66;10430284;28;20190;-56
2024/03/02 11:16:36;;;;;;;3.30;1.83;;;;;;;13.22;46.62;98640.69;10414501;28;20080;-58
2024/03/02 11:21:39;;;;;;;2.70;1.20;;;;;;;13.38;47.05;98633.06;10430280;28;20048;-54
2024/03/02 11:26:41;;;;;;;2.35;1.20;;;;;;;13.46;46.83;98630.59;10432148;28;20067;-58
2024/03/02 11:31:59;;;;;;;2.15;1.10;;;;;;;13.71;45.19;98620.31;10431708;28;20076;-57
2024/03/02 11:37:02;;;;;;;2.35;1.33;;;;;;;13.95;46.05;98613.72;10430783;28;20583;-56
2024/03/02 11:42:09;;;;;;;2.50;1.38;;;;;;;14.02;45.54;98615.66;10430170;28;20045;-57
2024/03/02 11:47:14;;;;;;;1.35;1.10;;;;;;;14.05;45.36;98614.50;10431006;28;20045;-58
2024/03/02 11:52:17;;;;;;;2.05;1.27;;;;;;;14.20;44.39;98606.00;10429241;28;20513;-55
2024/03/02 11:57:23;;;;;;;1.95;1.13;;;;;;;14.28;43.81;98592.97;10446095;28;20056;-57
2024/03/02 12:02:25;;;;;;;0.98;0.70;;;;;;;14.49;44.04;98601.44;10429957;28;20390;-57
2024/03/02 12:07:27;;;;;;;1.45;0.90;;;;;;;14.54;43.79;98582.56;10429254;28;20118;-57
2024/03/02 12:12:29;;;;;;;0.85;0.68;;;;;;;14.67;43.44;98562.00;10427921;28;20123;-54
2024/03/02 12:17:31;;;;;;;1.17;0.77;;;;;;;14.47;43.20;98574.41;10428815;28;20048;-57
2024/03/02 12:22:36;;;;;;;1.48;0.85;;;;;;;14.28;42.65;98566.66;10427105;28;20212;-54
2024/03/02 12:27:40;;;;;;;0.90;0.80;;;;;;;14.31;41.90;98570.78;10428614;28;20063;-57
2024/03/02 12:32:44;;;;;;;1.23;0.70;;;;;;;14.31;42.61;98574.25;10422332;28;20132;-57
2024/03/02 12:37:50;;;;;;;2.25;1.05;;;;;;;14.29;42.52;98563.03;10426217;28;20029;-56
2024/03/02 12:42:52;;;;;;;1.17;0.82;;;;;;;14.35;42.84;98565.06;10421711;28;20104;-56
2024/03/02 12:47:54;;;;;;;2.38;1.30;;;;;;;14.37;42.81;98555.22;10423766;28;20045;-57
2024/03/02 12:52:56;;;;;;;2.25;1.20;;;;;;;14.25;41.27;98559.06;10423717;28;20053;-56
2024/03/02 12:57:59;;;;;;;1.55;1.00;;;;;;;14.28;43.36;98553.50;10424879;28;20076;-57
2024/03/02 13:03:03;;;;;;;1.80;1.10;;;;;;;14.33;43.02;98551.25;10423176;28;20049;-57
2024/03/02 13:08:06;;;;;;;2.38;1.02;;;;;;;14.19;42.79;98549.13;10425039;28;20126;-56
2024/03/02 13:13:09;;;;;;;1.58;1.20;;;;;;;14.00;41.68;98544.00;10426657;28;20045;-57
2024/03/02 13:18:11;;;;;;;1.10;0.75;;;;;;;14.09;43.10;98539.63;10426399;28;20045;-57
2024/03/02 13:23:14;;;;;;;1.58;0.90;;;;;;;14.01;42.73;98531.66;10423212;28;20073;-57
2024/03/02 13:28:16;;;;;;;0.77;0.75;;;;;;;13.90;42.54;98524.81;10422877;28;20049;-55
2024/03/02 13:33:25;;;;;;;0.70;0.70;;;;;;;13.73;42.63;98525.59;10424941;28;20142;-57
2024/03/02 13:38:27;;;;;;;1.00;0.75;;;;;;;13.66;42.86;98519.25;10426382;28;20065;-57
2024/03/02 13:43:32;;;;;;;2.83;0.90;;;;;;;13.64;42.72;98524.66;10428516;28;20131;-57
2024/03/02 13:48:34;;;;;;;1.75;0.90;;;;;;;13.62;42.35;98523.97;10435107;28;20527;-57
2024/03/02 13:53:36;;;;;;;2.22;1.30;;;;;;;13.65;42.61;98522.84;10432380;28;20055;-56
2024/03/02 13:58:38;;;;;;;2.63;0.90;;;;;;;13.64;42.64;98518.56;10436063;28;20052;-57
2024/03/02 14:03:40;;;;;;;1.73;1.00;;;;;;;13.74;42.24;98509.66;10434810;28;20049;-58
2024/03/02 14:08:44;;;;;;;1.45;0.88;;;;;;;13.59;42.27;98515.56;10431953;28;20049;-59
2024/03/02 14:13:53;;;;;;;1.33;0.93;;;;;;;13.61;42.41;98503.94;10434994;28;20103;-57
2024/03/02 14:18:56;;;;;;;1.05;0.70;;;;;;;13.63;42.42;98496.75;10434639;28;20057;-59
2024/03/02 14:23:58;;;;;;;3.17;0.77;;;;;;;13.74;42.61;98495.69;10431869;28;20053;-58
2024/03/02 14:29:03;;;;;;;1.60;0.60;;;;;;;13.81;42.01;98491.53;10433330;28;20052;-58
2024/03/02 14:34:05;;;;;;;0.63;0.63;;;;;;;13.87;41.93;98490.94;10433852;28;20063;-58
2024/03/02 14:39:10;;;;;;;1.13;0.85;;;;;;;13.75;41.75;98492.94;10434977;28;20060;-58
2024/03/02 14:44:12;;;;;;;0.65;0.63;;;;;;;13.75;41.80;98490.31;10436029;28;20152;-58
2024/03/02 14:49:14;;;;;;;1.95;0.95;;;;;;;13.75;41.60;98500.00;10433875;28;20428;-59
2024/03/02 14:54:16;;;;;;;1.90;0.90;;;;;;;13.77;41.47;98491.00;10433554;28;20114;-58
2024/03/02 14:59:19;;;;;;;1.45;0.80;;;;;;;13.79;41.41;98488.22;10435563;28;20040;-57
2024/03/02 15:04:23;;;;;;;1.20;0.90;;;;;;;13.74;41.21;98480.75;10434005;28;20509;-57
2024/03/02 15:09:27;;;;;;;1.90;1.00;;;;;;;13.87;41.29;98472.53;10432298;28;20095;-58
2024/03/02 15:14:29;;;;;;;1.55;1.27;;;;;;;13.90;41.17;98467.00;10435011;28;20135;-58
2024/03/02 15:19:32;;;;;;;1.30;0.80;;;;;;;13.89;41.07;98462.72;10434145;28;20049;-56
2024/03/02 15:24:34;;;;;;;0.85;0.73;;;;;;;13.88;41.00;98450.53;10433035;28;20052;-57
2024/03/02 15:29:36;;;;;;;1.00;0.80;;;;;;;13.74;41.04;98448.41;10434764;28;20053;-58
2024/03/02 15:34:38;;;;;;;4.15;1.45;;;;;;;13.67;40.76;98449.97;10413873;28;20052;-58
2024/03/02 15:39:40;;;;;;;1.75;0.90;;;;;;;13.57;41.39;98446.56;10429580;28;20049;-58
2024/03/02 15:44:43;;;;;;;1.98;0.90;;;;;;;13.54;41.66;98442.44;10429540;28;20477;-59
2024/03/02 15:49:46;;;;;;;1.23;1.00;;;;;;;13.43;42.30;98441.81;10429833;28;20099;-58
2024/03/02 15:54:49;;;;;;;1.90;1.20;;;;;;;13.33;42.92;98438.38;10429191;28;20493;-57
2024/03/02 15:59:52;;;;;;;2.15;1.45;;;;;;;13.19;43.26;98434.41;10429687;28;20136;-58
2024/03/02 16:04:54;;;;;;;2.67;1.50;;;;;;;12.98;43.40;98429.34;10427539;28;20056;-58
2024/03/02 16:09:56;;;;;;;2.17;1.30;;;;;;;12.83;43.48;98432.59;10428761;28;20068;-57
2024/03/02 16:14:58;;;;;;;4.10;1.52;;;;;;;12.68;43.69;98437.44;10428043;28;20095;-57
2024/03/02 16:20:00;;;;;;;3.05;1.45;;;;;;;12.62;43.88;98437.22;10429494;28;20052;-58
2024/03/02 16:25:04;;;;;;;3.97;1.83;;;;;;;12.58;43.93;98436.63;10429681;28;20068;-57
2024/03/02 16:30:07;;;;;;;3.30;1.60;;;;;;;12.47;43.99;98443.84;10428887;28;20130;-57
2024/03/02 16:35:09;;;;;;;3.30;1.48;;;;;;;12.33;44.74;98437.22;10429406;28;20143;-56
2024/03/02 16:40:13;;;;;;;4.15;1.98;;;;;;;12.20;44.97;98447.13;10429407;28;20045;-56
2024/03/02 16:45:15;;;;;;;2.50;1.52;;;;;;;12.05;45.31;98436.22;10428965;28;20053;-57
2024/03/02 16:50:17;;;;;;;2.30;1.48;;;;;;;11.94;45.49;98430.28;10428737;28;20056;-58
2024/03/02 16:55:22;;;;;;;4.78;2.42;;;;;;;11.83;46.11;98433.00;10427484;28;20133;-56
2024/03/02 17:00:24;;;;;;;3.42;1.60;;;;;;;11.70;46.26;98432.44;10427352;28;20056;-54
2024/03/02 17:05:26;;;;;;;3.92;1.77;;;;;;;11.66;46.34;98425.81;10427877;28;20433;-57
2024/03/02 17:10:29;;;;;;;5.40;1.70;;;;;;;11.64;46.71;98430.38;10426585;28;20505;-57
2024/03/02 17:15:31;;;;;;;3.35;2.13;;;;;;;11.52;47.01;98424.41;10429260;28;20098;-57
2024/03/02 17:20:33;;;;;;;2.67;1.60;;;;;;;11.38;47.52;98427.38;10440229;28;20471;-57
2024/03/02 17:25:35;;;;;;;2.88;1.65;;;;;;;11.30;47.62;98438.53;10437681;28;20045;-58
2024/03/02 17:30:37;;;;;;;3.72;1.73;;;;;;;11.26;47.57;98445.00;10439732;28;20142;-57
2024/03/02 17:35:39;;;;;;;8.07;3.13;;;;;;;11.21;47.70;98441.91;10442123;28;20047;-57
2024/03/02 17:40:43;;;;;;;4.25;2.53;;;;;;;11.05;48.03;98446.81;10438188;28;20167;-57
2024/03/02 17:45:45;;;;;;;4.82;2.75;;;;;;;10.93;48.45;98453.06;10474060;28;20056;-56
2024/03/02 17:50:47;;;;;;;3.67;2.00;;;;;;;10.97;48.44;98451.84;10441512;28;20052;-56
2024/03/02 17:55:49;;;;;;;3.65;1.77;;;;;;;10.99;48.52;98457.75;10441918;28;20076;-57
2024/03/02 18:00:51;;;;;;;3.45;1.58;;;;;;;10.94;48.57;98453.88;10438530;28;20049;-56
2024/03/02 18:05:55;;;;;;;3.20;1.85;;;;;;;11.01;48.40;98455.84;10424289;28;20187;-56
2024/03/02 18:10:57;;;;;;;6.85;2.40;;;;;;;11.06;48.29;98451.09;10439281;28;20489;-56
2024/03/02 18:16:01;;;;;;;9.88;4.05;;;;;;;10.96;48.62;98452.81;10439831;28;20053;-56
2024/03/02 18:21:04;;;;;;;7.78;3.38;;;;;;;10.91;48.72;98448.94;10440044;28;20083;-54
2024/03/02 18:26:06;;;;;;;7.53;3.83;;;;;;;10.87;48.92;98444.88;10440326;28;20045;-57
2024/03/02 18:31:08;;;;;;;6.13;3.03;;;;;;;10.88;49.14;98444.78;10431865;28;20135;-54
2024/03/02 18:36:11;;;;;;;6.35;3.28;;;;;;;10.87;49.10;98452.72;10432255;28;20052;-52
2024/03/02 18:41:13;;;;;;;7.55;3.03;;;;;;;10.90;49.27;98448.09;10432306;28;20135;-56
2024/03/02 18:46:15;;;;;;;6.40;3.38;;;;;;;10.83;49.25;98443.50;10433679;28;20057;-54
2024/03/02 18:51:22;;;;;;;5.18;2.72;;;;;;;10.67;49.72;98443.97;10432192;28;20051;-57
2024/03/02 18:56:24;;;;;;;5.90;2.97;;;;;;;10.48;49.98;98441.22;10433515;28;20165;-60
2024/03/02 19:01:26;;;;;;;5.07;2.65;;;;;;;10.38;50.24;98440.31;10430743;28;20043;-60
2024/03/02 19:06:28;;;;;;;5.70;3.03;;;;;;;10.44;50.14;98439.78;10433146;28;20045;-60
2024/03/02 19:11:30;;;;;;;7.45;3.22;;;;;;;10.43;50.14;98448.59;10430555;28;20067;-60
2024/03/02 19:16:33;;;;;;;4.72;2.30;;;;;;;10.33;50.38;98437.25;10432435;28;20045;-61
2024/03/02 19:21:35;;;;;;;7.85;3.00;;;;;;;10.16;50.56;98429.97;10431208;28;20120;-60
2024/03/02 19:26:37;;;;;;;4.85;3.00;;;;;;;9.99;50.83;98435.75;10431028;28;20687;-60
2024/03/02 19:31:39;;;;;;;5.78;2.67;;;;;;;9.82;51.21;98436.25;10428936;28;20183;-60
2024/03/02 19:36:41;;;;;;;6.18;3.15;;;;;;;9.58;51.68;98434.59;10431311;28;20448;-60
2024/03/02 19:41:43;;;;;;;7.18;3.15;;;;;;;9.47;52.03;98441.63;10428702;28;20048;-60
2024/03/02 19:46:45;;;;;;;9.73;4.00;;;;;;;9.34;52.35;98441.75;10431243;28;20128;-60
2024/03/02 19:51:47;;;;;;;8.55;4.07;;;;;;;9.30;52.54;98435.13;10431084;28;20128;-60
2024/03/02 19:56:51;;;;;;;8.65;4.30;;;;;;;9.21;52.56;98421.97;10426408;28;20048;-59
2024/03/02 20:01:54;;;;;;;13.63;5.63;;;;;;;9.06;53.04;98420.53;10425886;28;20043;-60
2024/03/02 20:06:56;;;;;;;9.48;4.85;;;;;;;9.10;53.25;98428.03;10428881;28;20445;-60
2024/03/02 20:11:59;;;;;;;13.40;6.30;;;;;;;9.14;53.21;98432.06;10418287;28;20079;-60
2024/03/02 20:17:01;;;;;;;11.68;5.75;;;;;;;9.15;53.27;98435.50;10420295;28;20045;-61
2024/03/02 20:22:03;;;;;;;11.43;5.13;;;;;;;9.18;53.24;98437.88;10423920;28;20115;-60
2024/03/02 20:27:06;;;;;;;10.77;6.00;;;;;;;9.16;53.46;98434.53;10423550;28;20056;-60
2024/03/02 20:32:09;;;;;;;9.48;4.85;;;;;;;9.00;53.61;98445.31;10425309;28;20053;-60
2024/03/02 20:37:11;;;;;;;9.38;5.28;;;;;;;9.01;53.80;98441.78;10427060;28;20202;-60
2024/03/02 20:42:13;;;;;;;14.65;5.45;;;;;;;8.98;53.94;98428.13;10424254;28;20072;-60
2024/03/02 20:47:15;;;;;;;6.35;3.30;;;;;;;8.96;54.02;98414.38;10423493;28;20088;-60
2024/03/02 20:52:17;;;;;;;15.85;6.00;;;;;;;8.57;54.18;98403.44;10423382;28;20064;-60
2024/03/02 20:57:20;;;;;;;8.05;4.05;;;;;;;8.41;55.13;98402.13;10425895;28;20130;-60
2024/03/02 21:02:22;;;;;;;5.55;3.20;;;;;;;8.52;55.87;98387.34;10425666;28;20135;-60
2024/03/02 21:07:24;;;;;;;7.65;3.78;;;;;;;8.72;55.57;98381.44;10425524;28;20115;-60
2024/03/02 21:12:27;;;;;;;10.13;3.92;;;;;;;8.56;55.35;98370.53;10443501;28;20251;-60
2024/03/02 21:17:29;;;;;;;7.13;3.60;;;;;;;8.25;56.41;98371.19;10423183;28;20049;-60
2024/03/02 21:22:31;;;;;;;7.72;3.92;;;;;;;8.24;56.89;98364.31;10427927;28;20041;-60
2024/03/02 21:27:33;;;;;;;6.20;3.47;;;;;;;8.49;56.05;98358.91;10410056;28;21054;-60
2024/03/02 21:32:35;;;;;;;6.75;2.92;;;;;;;8.65;55.77;98374.19;10430949;28;20504;-60
2024/03/02 21:37:37;;;;;;;7.35;3.00;;;;;;;8.75;55.82;98385.59;10431353;28;20052;-61
2024/03/02 21:42:39;;;;;;;8.40;2.88;;;;;;;8.71;56.14;98389.38;10431593;28;20048;-61
2024/03/02 21:47:41;;;;;;;5.10;2.88;;;;;;;8.82;56.06;98392.00;10431185;28;20055;-60
2024/03/02 21:52:45;;;;;;;6.15;3.10;;;;;;;8.83;56.20;98378.03;10430890;28;20052;-60
2024/03/02 21:57:47;;;;;;;4.28;2.67;;;;;;;8.88;55.99;98381.09;10430007;28;20053;-60
2024/03/02 22:02:50;;;;;;;6.93;2.80;;;;;;;9.05;55.86;98396.28;10432338;28;20428;-60
2024/03/02 22:07:53;;;;;;;5.32;2.63;;;;;;;9.11;55.72;98402.78;10437104;28;20119;-60
2024/03/02 22:12:55;;;;;;;7.28;3.70;;;;;;;8.92;55.97;98397.31;10438592;28;20056;-60
2024/03/02 22:18:00;;;;;;;7.22;3.25;;;;;;;9.00;55.86;98400.16;10437795;28;20512;-61
2024/03/02 22:23:02;;;;;;;5.88;2.97;;;;;;;9.19;55.66;98405.63;10438467;28;20383;-60
2024/03/02 22:28:05;;;;;;;5.90;3.28;;;;;;;9.21;55.62;98398.50;10436924;28;20048;-59
2024/03/02 22:33:07;;;;;;;5.78;2.75;;;;;;;9.43;55.26;98398.47;10438570;28;20163;-60
2024/03/02 22:38:11;;;;;;;7.10;3.20;;;;;;;9.40;55.28;98396.13;10438569;28;20049;-60
2024/03/02 22:43:15;;;;;;;5.03;2.50;;;;;;;9.38;55.27;98401.44;10438195;28;20044;-61
2024/03/02 22:48:18;;;;;;;5.47;2.60;;;;;;;9.36;55.29;98392.91;10437664;28;20045;-60
2024/03/02 22:53:21;;;;;;;6.10;3.17;;;;;;;9.44;55.23;98394.91;10437160;28;20056;-60
2024/03/02 22:58:23;;;;;;;10.43;3.78;;;;;;;9.32;55.25;98401.13;10436095;28;20032;-60
2024/03/02 23:03:26;;;;;;;6.25;3.20;;;;;;;9.16;55.44;98384.97;10436724;28;20041;-60
2024/03/02 23:08:29;;;;;;;9.10;3.35;;;;;;;9.10;55.82;98401.94;10437434;28;20053;-60
2024/03/02 23:13:32;;;;;;;6.18;3.28;;;;;;;9.13;55.69;98406.94;10436029;28;20345;-60
2024/03/02 23:18:34;;;;;;;6.32;3.10;;;;;;;8.76;56.27;98384.66;10436523;28;20076;-60
2024/03/02 23:23:37;;;;;;;6.75;3.25;;;;;;;8.67;56.62;98382.72;10436645;28;20052;-61
2024/03/02 23:28:39;;;;;;;5.57;3.10;;;;;;;8.68;56.72;98379.19;10436723;28;20051;-60
2024/03/02 23:33:41;;;;;;;6.78;3.58;;;;;;;8.83;56.43;98375.41;10435914;28;20159;-60
2024/03/02 23:38:43;;;;;;;5.13;3.20;;;;;;;8.78;56.49;98386.19;10436421;28;20045;-61
2024/03/02 23:43:46;;;;;;;7.05;3.00;;;;;;;8.61;56.57;98378.81;10435648;28;20064;-60